Time;durP1;ratioP1;P1;durP2;ratioP2;P2;SDS_P1;SDS_P2;PMS_P1;PMS_P2;Temp;Humidity;BMP_temperature;BMP_pressure;BME280_temperature;BME280_humidity;BME280_pressure;Samples;Min_cycle;Max_cycle;Signal;HPM_P1;HPM_P2
2022/06/28 00:01:34;;;;;;;10.27;9.27;;;17.40;99.90;;;18.08;100.00;98394.59;5197024;28;20656;-63
2022/06/28 00:04:08;;;;;;;9.63;8.82;;;17.30;99.90;;;18.12;100.00;98390.44;5192487;28;20198;-62
2022/06/28 00:06:43;;;;;;;10.57;8.13;;;17.40;99.90;;;18.13;100.00;98397.34;5196982;28;20718;-63
2022/06/28 00:09:16;;;;;;;9.50;8.60;;;17.40;99.90;;;18.18;100.00;98390.63;5193315;28;20226;-63
2022/06/28 00:11:49;;;;;;;10.85;9.90;;;17.50;99.90;;;18.20;100.00;98389.00;5196110;28;20199;-63
2022/06/28 00:17:14;;;;;;;8.45;7.75;;;17.30;99.90;;;18.00;100.00;98409.84;5196187;28;20198;-63
2022/06/28 00:19:47;;;;;;;12.05;9.48;;;17.20;99.90;;;18.02;100.00;98404.72;5195976;28;20699;-63
2022/06/28 00:22:22;;;;;;;13.05;8.25;;;17.30;99.90;;;17.96;100.00;98410.53;5196106;28;20208;-64
2022/06/28 00:24:55;;;;;;;7.70;7.10;;;17.30;99.90;;;17.97;100.00;98414.91;5192173;28;20262;-63
2022/06/28 00:27:28;;;;;;;8.85;8.15;;;17.20;99.90;;;17.98;100.00;98419.25;5193038;28;20714;-63
2022/06/28 00:30:01;;;;;;;8.68;7.93;;;17.20;99.90;;;17.86;100.00;98418.81;5196112;28;20556;-64
2022/06/28 00:32:34;;;;;;;8.68;7.88;;;17.10;99.90;;;17.69;100.00;98425.00;5193274;28;20240;-64
2022/06/28 00:35:09;;;;;;;10.05;8.95;;;17.00;99.90;;;17.70;100.00;98424.19;5189448;28;20305;-62
2022/06/28 00:37:44;;;;;;;9.05;8.35;;;17.10;99.90;;;17.81;100.00;98429.81;5195989;28;20197;-63
2022/06/28 00:40:17;;;;;;;10.30;9.40;;;17.10;99.90;;;17.85;100.00;98435.13;5186583;28;20276;-63
2022/06/28 00:42:51;;;;;;;10.70;9.60;;;17.20;99.90;;;17.92;100.00;98431.97;5192045;28;20211;-63
2022/06/28 00:45:26;;;;;;;7.63;7.13;;;17.20;99.90;;;17.92;100.00;98439.72;5190241;28;20297;-62
2022/06/28 00:47:59;;;;;;;9.07;8.38;;;17.30;99.90;;;18.01;100.00;98440.06;5193479;28;20201;-63
2022/06/28 00:50:35;;;;;;;10.30;9.23;;;17.30;99.90;;;17.92;100.00;98450.06;5196520;28;20233;-64
2022/06/28 00:53:13;;;;;;;7.95;7.35;;;17.20;99.90;;;17.98;100.00;98447.69;5195887;28;20206;-63
2022/06/28 00:55:48;;;;;;;8.02;7.30;;;17.30;99.90;;;18.04;100.00;98446.19;5195365;28;20384;-63
2022/06/28 00:58:21;;;;;;;8.45;7.75;;;17.30;99.90;;;18.06;100.00;98441.94;5195442;28;20731;-64
2022/06/28 01:00:55;;;;;;;8.52;7.82;;;17.30;99.90;;;18.09;100.00;98435.19;5195271;28;20198;-64
2022/06/28 01:03:28;;;;;;;7.28;6.60;;;17.30;99.90;;;18.12;100.00;98437.00;5197265;28;20697;-63
2022/06/28 01:06:02;;;;;;;6.47;5.97;;;17.30;99.90;;;18.11;100.00;98435.22;5196383;28;20691;-63
2022/06/28 01:08:36;;;;;;;7.10;6.50;;;17.40;99.90;;;18.08;100.00;98433.38;5193711;28;20237;-63
2022/06/28 01:11:19;;;;;;;7.85;7.25;;;17.30;99.90;;;18.12;100.00;98435.28;5192230;28;20229;-63
2022/06/28 01:13:55;;;;;;;6.70;6.20;;;17.40;99.90;;;18.14;100.00;98431.06;5193784;28;20215;-63
2022/06/28 01:16:29;;;;;;;7.68;6.97;;;17.40;99.90;;;18.17;100.00;98431.16;5193582;28;20243;-63
2022/06/28 01:19:03;;;;;;;7.40;6.72;;;17.40;99.90;;;18.13;100.00;98437.03;5196619;28;20226;-63
2022/06/28 01:21:38;;;;;;;13.30;7.10;;;17.30;99.90;;;18.10;100.00;98430.88;5189779;28;20209;-64
2022/06/28 01:24:12;;;;;;;7.70;7.03;;;17.30;99.90;;;18.07;100.00;98429.06;5192772;28;20221;-63
2022/06/28 01:26:46;;;;;;;7.60;7.10;;;17.30;99.90;;;18.09;100.00;98429.13;5194596;28;20263;-62
2022/06/28 01:29:20;;;;;;;6.00;5.60;;;17.30;99.90;;;18.06;100.00;98426.44;5191576;28;20293;-59
2022/06/28 01:31:53;;;;;;;5.70;5.30;;;17.30;99.90;;;18.05;100.00;98427.22;5191392;28;20580;-64
2022/06/28 01:34:26;;;;;;;5.57;5.22;;;17.30;99.90;;;17.99;100.00;98426.16;5192874;28;20607;-63
2022/06/28 01:37:00;;;;;;;5.60;5.20;;;17.10;99.90;;;17.97;100.00;98424.34;5196176;28;20248;-64
2022/06/28 01:39:35;;;;;;;5.30;4.90;;;17.20;99.90;;;17.97;100.00;98430.44;5196208;28;20245;-64
2022/06/28 01:42:09;;;;;;;4.30;4.10;;;17.10;99.90;;;17.97;100.00;98430.44;5199441;28;20565;-62
2022/06/28 01:44:44;;;;;;;4.80;4.40;;;17.10;99.90;;;17.97;100.00;98432.09;5197691;28;20198;-64
2022/06/28 01:47:20;;;;;;;4.60;4.30;;;17.10;99.90;;;17.97;100.00;98433.03;5196755;28;20248;-64
2022/06/28 01:49:55;;;;;;;5.53;5.13;;;17.20;99.90;;;17.92;100.00;98439.72;5199443;28;20690;-62
2022/06/28 01:52:28;;;;;;;5.10;4.80;;;17.10;99.90;;;17.97;100.00;98440.78;5200419;28;20224;-63
2022/06/28 01:55:02;;;;;;;6.68;6.18;;;17.20;99.90;;;17.90;100.00;98440.47;5196997;28;20585;-63
2022/06/28 01:57:35;;;;;;;6.82;6.32;;;17.10;99.90;;;17.94;100.00;98440.66;5199464;28;20248;-62
2022/06/28 02:00:10;;;;;;;7.30;6.53;;;17.10;99.90;;;17.95;100.00;98433.78;5195011;28;20215;-63
2022/06/28 02:02:44;;;;;;;7.38;6.80;;;17.20;99.90;;;17.95;100.00;98442.41;5201596;28;20565;-63
2022/06/28 02:05:18;;;;;;;9.27;8.55;;;17.20;99.90;;;17.99;100.00;98446.88;5200425;28;20225;-63
2022/06/28 02:07:52;;;;;;;8.90;8.20;;;17.20;99.90;;;18.02;100.00;98453.88;5200266;28;20244;-61
2022/06/28 02:10:27;;;;;;;8.50;7.70;;;17.10;99.90;;;17.98;100.00;98450.28;5200729;28;20195;-63
2022/06/28 02:13:00;;;;;;;9.50;8.60;;;17.10;99.90;;;17.96;100.00;98448.47;5199851;28;20656;-63
2022/06/28 02:15:33;;;;;;;10.00;8.40;;;17.10;99.90;;;17.90;100.00;98446.53;5198046;28;20249;-63
2022/06/28 02:18:07;;;;;;;9.02;8.23;;;17.10;99.90;;;17.87;100.00;98440.38;5200016;28;20622;-64
2022/06/28 02:20:40;;;;;;;9.20;8.30;;;17.10;99.90;;;17.85;100.00;98432.53;5201130;28;20244;-59
2022/06/28 02:23:13;;;;;;;9.63;8.93;;;17.10;99.90;;;17.80;100.00;98454.78;5200940;28;20210;-62
2022/06/28 02:25:47;;;;;;;16.90;7.70;;;17.00;99.90;;;17.71;100.00;98459.53;5192266;28;20630;-64
2022/06/28 02:28:20;;;;;;;8.55;7.85;;;16.90;99.90;;;17.64;100.00;98463.59;5196707;28;20333;-63
2022/06/28 02:30:53;;;;;;;8.13;7.53;;;16.80;99.90;;;17.68;100.00;98459.44;5194184;28;20210;-61
2022/06/28 02:33:27;;;;;;;8.32;7.63;;;16.90;99.90;;;17.68;100.00;98462.00;5199285;28;20592;-63
2022/06/28 02:41:48;;;;;;;9.20;8.40;;;17.00;99.90;;;17.72;100.00;98454.44;5193786;28;20665;-61
2022/06/28 02:44:21;;;;;;;9.77;8.77;;;17.00;99.90;;;17.65;100.00;98461.91;5201101;28;20197;-61
2022/06/28 02:46:54;;;;;;;9.43;8.73;;;16.90;99.90;;;17.64;100.00;98448.09;5198833;28;20699;-61
2022/06/28 02:49:28;;;;;;;8.15;7.55;;;16.90;99.90;;;17.67;100.00;98442.16;5199647;28;20644;-61
2022/06/28 02:52:01;;;;;;;9.18;8.32;;;16.90;99.90;;;17.65;100.00;98464.47;5197469;28;20253;-60
2022/06/28 02:54:34;;;;;;;9.52;8.75;;;16.90;99.90;;;17.66;100.00;98467.13;5199663;28;20202;-61
2022/06/28 02:57:08;;;;;;;8.40;7.80;;;17.00;99.90;;;17.68;100.00;98470.66;5195630;28;20226;-61
2022/06/28 02:59:42;;;;;;;7.15;6.43;;;17.00;99.90;;;17.70;100.00;98481.06;5195065;28;20249;-60
2022/06/28 03:02:15;;;;;;;8.13;7.53;;;16.90;99.90;;;17.69;100.00;98476.72;5193708;28;20210;-61
2022/06/28 03:04:48;;;;;;;7.93;7.32;;;17.00;99.90;;;17.67;100.00;98480.94;5196558;28;20202;-61
2022/06/28 03:07:21;;;;;;;7.22;6.72;;;16.90;99.90;;;17.66;100.00;98479.19;5196650;28;20256;-61
2022/06/28 03:09:54;;;;;;;7.47;6.97;;;16.90;99.90;;;17.63;100.00;98474.78;5193375;28;20265;-61
2022/06/28 03:12:29;;;;;;;8.02;7.43;;;16.90;99.90;;;17.66;100.00;98471.44;5196510;28;20804;-61
2022/06/28 03:15:02;;;;;;;8.07;7.28;;;16.90;99.90;;;17.63;100.00;98473.91;5195095;28;20201;-61
2022/06/28 03:17:35;;;;;;;7.20;6.63;;;16.70;99.90;;;17.51;100.00;98462.25;5198715;28;20744;-61
2022/06/28 03:20:10;;;;;;;7.88;7.28;;;16.60;99.90;;;17.52;100.00;98464.00;5196805;28;20241;-61
2022/06/28 03:22:43;;;;;;;9.38;8.55;;;16.70;99.90;;;17.52;100.00;98471.75;5197001;28;20233;-61
2022/06/28 03:25:16;;;;;;;9.80;8.88;;;16.80;99.90;;;17.51;100.00;98467.44;5194004;28;20234;-60
2022/06/28 03:27:51;;;;;;;7.53;7.00;;;16.70;99.90;;;17.53;100.00;98459.72;5199481;28;20194;-60
2022/06/28 03:30:24;;;;;;;9.20;8.30;;;16.70;99.90;;;17.53;100.00;98460.59;5196261;28;20221;-61
2022/06/28 03:32:57;;;;;;;8.25;7.55;;;16.70;99.90;;;17.51;100.00;98477.78;5192753;28;20229;-61
2022/06/28 03:35:31;;;;;;;7.03;6.43;;;16.80;99.90;;;17.61;100.00;98473.81;5196755;28;20260;-61
2022/06/28 03:38:04;;;;;;;7.55;6.85;;;16.80;99.90;;;17.56;100.00;98480.50;5193367;28;20250;-61
2022/06/28 03:40:37;;;;;;;7.22;6.68;;;16.80;99.90;;;17.55;100.00;98484.81;5196766;28;20244;-60
2022/06/28 03:43:12;;;;;;;7.30;6.70;;;16.80;99.90;;;17.64;100.00;98478.25;5202887;28;20794;-61
2022/06/28 03:45:45;;;;;;;6.05;5.55;;;16.80;99.90;;;17.66;100.00;98471.44;5204702;28;20201;-61
2022/06/28 03:48:18;;;;;;;7.07;6.47;;;16.80;99.90;;;17.67;100.00;98473.19;5197632;28;20249;-62
2022/06/28 03:50:51;;;;;;;7.53;6.78;;;16.90;99.90;;;17.64;100.00;98475.66;5201138;28;20233;-61
2022/06/28 03:53:24;;;;;;;6.93;6.32;;;16.90;99.90;;;17.67;100.00;98462.84;5202278;28;20194;-61
2022/06/28 03:55:57;;;;;;;7.88;7.28;;;16.90;99.90;;;17.69;100.00;98464.69;5204851;28;20233;-61
2022/06/28 03:58:32;;;;;;;8.10;7.50;;;16.90;99.90;;;17.68;100.00;98465.47;5198964;28;20249;-61
2022/06/28 04:01:05;;;;;;;8.82;8.13;;;16.90;99.90;;;17.59;100.00;98474.59;5200033;28;20251;-61
2022/06/28 04:03:38;;;;;;;8.20;7.60;;;16.80;99.90;;;17.63;100.00;98471.31;5191421;28;20202;-61
2022/06/28 04:06:11;;;;;;;8.55;7.95;;;16.90;99.90;;;17.65;100.00;98472.25;5187995;28;20587;-61
2022/06/28 04:08:44;;;;;;;9.65;8.75;;;16.90;99.90;;;17.67;100.00;98476.66;5198101;28;20302;-61
2022/06/28 04:11:18;;;;;;;8.55;7.85;;;16.90;99.90;;;17.71;100.00;98469.88;5201230;28;20228;-61
2022/06/28 04:13:54;;;;;;;9.15;8.35;;;16.90;99.90;;;17.68;100.00;98469.78;5203210;28;20202;-61
2022/06/28 04:16:28;;;;;;;8.25;7.65;;;16.90;99.90;;;17.59;100.00;98475.47;5201192;28;20643;-61
2022/06/28 04:19:01;;;;;;;8.27;7.68;;;16.80;99.90;;;17.44;100.00;98475.75;5201466;28;20638;-61
2022/06/28 04:21:34;;;;;;;6.22;5.82;;;16.70;99.90;;;17.45;100.00;98477.50;5194214;28;20250;-62
2022/06/28 04:24:07;;;;;;;6.57;6.07;;;16.70;99.90;;;17.49;100.00;98469.06;5201538;28;20233;-61
2022/06/28 04:26:40;;;;;;;7.07;6.60;;;16.70;99.90;;;17.54;100.00;98470.13;5197251;28;20195;-61
2022/06/28 04:29:15;;;;;;;7.57;6.95;;;16.80;99.90;;;17.53;100.00;98475.22;5202870;28;20253;-61
2022/06/28 04:31:48;;;;;;;7.53;6.93;;;16.80;99.90;;;17.54;100.00;98466.63;5200303;28;20205;-61
2022/06/28 04:34:22;;;;;;;7.00;6.50;;;16.80;99.90;;;17.60;100.00;98463.41;5198326;28;20198;-60
2022/06/28 04:36:55;;;;;;;7.22;6.72;;;16.80;99.90;;;17.70;100.00;98462.97;5198893;28;20264;-60
2022/06/28 04:39:28;;;;;;;6.15;5.75;;;17.00;99.90;;;17.82;100.00;98468.63;5198141;28;20264;-59
2022/06/28 04:42:02;;;;;;;8.38;7.78;;;17.10;99.90;;;17.86;100.00;98464.47;5195368;28;20210;-61
2022/06/28 04:44:38;;;;;;;6.70;6.20;;;17.10;99.90;;;17.87;100.00;98461.94;5195284;28;20256;-61
2022/06/28 04:47:12;;;;;;;6.82;6.32;;;17.10;99.90;;;17.82;100.00;98468.63;5195095;28;20736;-58
2022/06/28 04:49:45;;;;;;;6.97;6.57;;;17.00;99.90;;;17.74;99.63;98480.34;5192673;28;20249;-61
2022/06/28 04:52:18;;;;;;;6.40;6.00;;;17.00;99.90;;;17.79;100.00;98474.56;5192305;28;20256;-60
2022/06/28 04:54:51;;;;;;;6.00;5.60;;;17.00;99.90;;;17.97;100.00;98469.22;5194759;28;20224;-60
2022/06/28 04:57:24;;;;;;;6.70;6.10;;;17.10;99.90;;;18.12;99.59;98475.81;5195289;28;20275;-60
2022/06/28 04:59:59;;;;;;;6.25;5.65;;;17.30;99.90;;;18.17;98.71;98484.59;5193774;28;20260;-60
2022/06/28 05:02:32;;;;;;;6.15;5.68;;;17.30;99.90;;;18.15;98.20;98486.25;5195121;28;20256;-60
2022/06/28 05:05:06;;;;;;;5.63;5.22;;;17.30;99.90;;;18.22;98.51;98475.31;5193057;28;20672;-60
2022/06/28 05:07:40;;;;;;;6.35;5.85;;;17.40;99.90;;;18.48;98.95;98473.66;5193508;28;20197;-58
2022/06/28 05:10:13;;;;;;;6.03;5.63;;;17.70;99.90;;;18.68;96.61;98474.34;5186665;28;20221;-60
2022/06/28 05:12:46;;;;;;;5.22;4.85;;;17.90;99.90;;;18.90;95.92;98476.91;5199665;28;20194;-60
2022/06/28 05:15:21;;;;;;;4.95;4.55;;;18.00;99.90;;;19.00;95.07;98484.97;5197758;28;20199;-60
2022/06/28 05:17:54;;;;;;;5.93;5.43;;;18.00;99.90;;;18.99;94.52;98480.63;5194318;28;20217;-60
2022/06/28 05:20:27;;;;;;;5.45;5.05;;;18.10;99.90;;;18.96;94.00;98467.59;5201774;28;20287;-59
2022/06/28 05:23:00;;;;;;;5.65;5.15;;;18.00;99.90;;;18.95;93.43;98455.47;5198957;28;20230;-60
2022/06/28 05:25:33;;;;;;;5.50;5.07;;;18.00;99.90;;;19.23;92.97;98452.03;5204701;28;20228;-60
2022/06/28 05:28:06;;;;;;;5.00;4.63;;;18.30;99.90;;;19.66;90.12;98443.97;5199340;28;20307;-60
2022/06/28 05:30:41;;;;;;;4.60;4.20;;;18.70;99.90;;;20.27;87.95;98451.78;5204170;28;20515;-60
2022/06/28 05:33:14;;;;;;;4.72;4.43;;;19.30;99.90;;;20.64;84.55;98446.78;5203291;28;20252;-60
2022/06/28 05:35:47;;;;;;;4.45;4.05;;;19.40;99.90;;;20.62;83.41;98460.56;5204324;28;20243;-60
2022/06/28 05:38:20;;;;;;;3.70;3.50;;;19.40;99.90;;;20.68;82.62;98463.34;5201886;28;20249;-59
2022/06/28 05:40:53;;;;;;;3.47;3.28;;;19.20;99.90;;;20.59;82.52;98458.78;5199885;28;20229;-60
2022/06/28 05:43:26;;;;;;;3.45;3.25;;;19.20;99.90;;;20.55;83.38;98440.47;5204227;28;20234;-60
2022/06/28 05:46:01;;;;;;;3.70;3.50;;;19.20;99.90;;;20.60;82.40;98431.97;5200254;28;20241;-60
2022/06/28 05:48:34;;;;;;;4.05;3.65;;;19.30;99.90;;;20.77;82.35;98436.72;5202956;28;20271;-60
2022/06/28 05:51:07;;;;;;;3.55;3.28;;;19.50;99.90;;;21.06;82.03;98437.44;5200831;28;20327;-60
2022/06/28 05:53:41;;;;;;;4.40;4.20;;;19.80;99.90;;;21.29;80.65;98444.13;5201859;28;20190;-60
2022/06/28 05:56:14;;;;;;;4.13;3.80;;;20.00;99.90;;;21.66;79.73;98434.59;5203004;28;20194;-60
2022/06/28 05:58:47;;;;;;;4.18;3.85;;;20.40;99.90;;;22.32;77.88;98432.50;5201269;28;20252;-60
2022/06/28 06:01:22;;;;;;;4.20;4.00;;;21.00;99.90;;;22.88;74.45;98432.69;5199653;28;20240;-60
2022/06/28 06:03:57;;;;;;;4.07;3.88;;;21.40;99.90;;;23.07;72.98;98441.75;5200983;28;22066;-60
2022/06/28 06:06:31;;;;;;;4.50;4.10;;;21.50;99.90;;;22.89;71.86;98445.78;5198552;28;20198;-60
2022/06/28 06:09:04;;;;;;;4.43;4.13;;;21.20;99.90;;;22.58;72.96;98441.72;5200547;28;20254;-60
2022/06/28 06:11:37;;;;;;;4.88;4.43;;;20.90;99.90;;;22.28;74.24;98431.56;5201695;28;20202;-60
2022/06/28 06:14:10;;;;;;;4.63;4.32;;;20.60;99.90;;;21.99;75.61;98434.44;5194678;28;20699;-60
2022/06/28 06:16:45;;;;;;;4.70;4.30;;;20.30;99.90;;;21.68;77.04;98426.81;5197653;28;20549;-60
2022/06/28 06:19:19;;;;;;;4.60;4.30;;;20.10;99.90;;;21.53;77.41;98430.81;5201930;28;20967;-60
2022/06/28 06:21:52;;;;;;;4.80;4.35;;;19.90;99.90;;;21.32;79.16;98440.72;5200928;28;20624;-60
2022/06/28 06:24:25;;;;;;;5.63;4.95;;;19.80;99.90;;;21.17;80.51;98443.78;5198945;28;20230;-60
2022/06/28 06:26:58;;;;;;;5.57;4.90;;;19.70;99.90;;;21.20;80.53;98450.78;5198120;28;20629;-60
2022/06/28 06:29:31;;;;;;;5.20;4.80;;;19.80;99.90;;;21.71;79.30;98452.91;5203901;28;20249;-59
2022/06/28 06:32:08;;;;;;;4.43;4.15;;;20.30;99.90;;;22.61;75.58;98461.75;5201553;28;20738;-60
2022/06/28 06:34:41;;;;;;;5.05;4.55;;;21.00;99.90;;;22.81;73.34;98455.19;5202039;28;20252;-60
2022/06/28 06:37:14;;;;;;;4.63;4.32;;;21.20;99.90;;;22.63;73.30;98460.91;5198492;28;20226;-60
2022/06/28 06:39:47;;;;;;;4.72;4.43;;;20.90;99.90;;;22.40;74.25;98467.41;5198007;28;20308;-60
2022/06/28 06:42:20;;;;;;;4.85;4.55;;;20.70;99.90;;;22.24;74.75;98472.31;5199499;28;20225;-60
2022/06/28 06:44:54;;;;;;;5.30;4.80;;;20.40;99.90;;;21.96;76.21;98473.41;5197624;28;20198;-60
2022/06/28 06:47:29;;;;;;;5.38;4.97;;;20.30;99.90;;;21.79;77.29;98466.97;5201321;28;20229;-60
2022/06/28 06:50:07;;;;;;;5.75;5.35;;;20.20;99.90;;;21.64;78.07;98471.84;5197767;28;20221;-60
2022/06/28 06:52:40;;;;;;;5.57;5.13;;;20.20;99.90;;;21.59;78.09;98470.00;5198372;28;20256;-60
2022/06/28 06:55:14;;;;;;;6.18;5.57;;;20.20;99.90;;;21.45;78.31;98468.78;5197514;28;20195;-60
2022/06/28 06:57:47;;;;;;;6.25;5.65;;;20.00;99.90;;;21.46;78.14;98467.97;5200072;28;20238;-60
2022/06/28 07:00:20;;;;;;;6.57;6.07;;;19.90;99.90;;;21.22;79.42;98462.13;5196035;28;20675;-60
2022/06/28 07:02:55;;;;;;;6.05;5.65;;;19.80;99.90;;;20.94;80.16;98456.22;5200426;28;20281;-60
2022/06/28 07:05:28;;;;;;;6.10;5.60;;;19.80;99.90;;;20.64;80.14;98448.53;5200171;28;20197;-58
2022/06/28 07:08:01;;;;;;;5.75;5.15;;;19.60;99.90;;;20.60;81.53;98424.19;5193784;28;20206;-60
2022/06/28 07:10:34;;;;;;;5.28;4.85;;;19.50;99.90;;;20.67;81.87;98415.69;5195118;28;20332;-58
2022/06/28 07:13:08;;;;;;;5.57;5.15;;;19.50;99.90;;;20.61;81.82;98412.06;5197532;28;20206;-59
2022/06/28 07:15:41;;;;;;;5.63;5.22;;;19.50;99.90;;;20.55;81.64;98398.94;5201051;28;20241;-59
2022/06/28 07:18:15;;;;;;;5.28;4.88;;;19.50;99.90;;;20.57;82.08;98408.50;5198218;28;20309;-59
2022/06/28 07:20:51;;;;;;;5.30;5.00;;;19.50;99.90;;;20.66;81.82;98400.97;5198097;28;20665;-58
2022/06/28 07:23:24;;;;;;;4.95;4.65;;;19.60;99.90;;;20.73;81.63;98406.31;5197687;28;20236;-60
2022/06/28 07:26:00;;;;;;;4.82;4.53;;;19.70;99.90;;;20.79;80.48;98399.53;5197194;28;20318;-60
2022/06/28 07:28:34;;;;;;;5.45;5.05;;;19.80;99.90;;;21.14;79.24;98392.59;5195790;28;20527;-60
2022/06/28 07:31:07;;;;;;;5.22;4.90;;;20.20;99.90;;;21.53;77.97;98385.72;5196560;28;20643;-60
2022/06/28 07:33:41;;;;;;;5.40;4.90;;;20.60;99.90;;;21.88;74.75;98372.59;5193939;28;20208;-60
2022/06/28 07:36:15;;;;;;;4.40;4.10;;;21.00;99.90;;;22.44;73.69;98347.66;5198446;28;20206;-60
2022/06/28 07:38:49;;;;;;;4.80;4.50;;;21.50;99.90;;;22.79;71.05;98339.56;5195777;28;20321;-59
2022/06/28 07:41:23;;;;;;;4.65;4.35;;;21.80;99.90;;;22.88;68.46;98344.91;5192348;28;20654;-60
2022/06/28 07:43:56;;;;;;;4.22;3.92;;;22.00;99.90;;;23.11;69.53;98332.28;5193425;28;20231;-59
2022/06/28 07:46:29;;;;;;;4.30;3.90;;;22.10;99.90;;;22.78;69.29;98330.00;5191240;28;20232;-59
2022/06/28 07:49:04;;;;;;;4.05;3.75;;;22.10;99.90;;;22.71;69.69;98329.00;5195083;28;20222;-60
2022/06/28 07:54:28;;;;;;;3.67;3.47;;;21.60;99.90;;;22.21;70.53;98369.81;5191397;28;20234;-59
2022/06/28 07:57:01;;;;;;;4.20;3.90;;;21.20;99.90;;;22.03;71.05;98358.16;5193280;28;20201;-59
2022/06/28 07:59:34;;;;;;;4.00;3.65;;;20.90;99.90;;;21.78;71.52;98353.31;5203088;28;20218;-58
2022/06/28 08:02:07;;;;;;;3.95;3.65;;;20.80;99.90;;;21.67;73.26;98367.81;5189212;28;20202;-58
2022/06/28 08:04:48;;;;;;;3.70;3.50;;;20.50;99.90;;;21.46;74.40;98371.72;5197641;28;20194;-59
2022/06/28 08:07:21;;;;;;;4.97;3.90;;;20.40;99.90;;;21.38;74.84;98369.78;5193472;28;20202;-57
2022/06/28 08:09:59;;;;;;;4.35;4.05;;;20.40;99.90;;;21.28;75.34;98372.13;5195568;28;20687;-61
2022/06/28 08:12:33;;;;;;;4.10;3.80;;;20.30;99.90;;;21.27;75.85;98369.50;5197966;28;20202;-61
2022/06/28 08:15:08;;;;;;;4.63;4.32;;;20.30;99.90;;;21.19;75.79;98363.25;5203499;28;20248;-61
2022/06/28 08:17:41;;;;;;;4.15;3.85;;;20.20;99.90;;;21.28;76.63;98355.66;5197566;28;20208;-60
2022/06/28 08:20:16;;;;;;;4.05;3.70;;;20.30;99.90;;;21.67;76.56;98358.28;5191811;28;20746;-61
2022/06/28 08:22:49;;;;;;;4.20;3.90;;;20.80;99.90;;;22.55;73.20;98367.81;5188393;28;20206;-62
2022/06/28 08:25:23;;;;;;;4.47;4.07;;;21.70;99.90;;;23.31;69.11;98371.69;5190720;28;20627;-61
2022/06/28 08:27:56;;;;;;;3.85;3.55;;;22.40;99.90;;;23.97;68.90;98371.72;5194303;28;20206;-61
2022/06/28 08:30:29;;;;;;;3.67;3.38;;;23.10;99.90;;;24.55;67.02;98371.50;5196976;28;20221;-61
2022/06/28 08:33:02;;;;;;;3.88;3.63;;;23.60;99.90;;;24.79;61.53;98355.19;5193573;28;20202;-61
2022/06/28 08:35:38;;;;;;;3.40;3.20;;;23.80;99.90;;;25.08;60.30;98348.44;5200969;28;20193;-61
2022/06/28 08:38:11;;;;;;;3.97;3.78;;;23.90;99.90;;;25.23;57.50;98352.06;5191584;28;20253;-62
2022/06/28 08:40:45;;;;;;;3.22;3.03;;;24.10;99.90;;;25.21;59.54;98354.69;5193284;28;20240;-61
2022/06/28 08:43:19;;;;;;;4.00;3.67;;;24.30;99.90;;;25.09;59.53;98344.94;5197337;28;20618;-62
2022/06/28 08:45:52;;;;;;;3.70;3.40;;;24.10;99.90;;;25.29;58.82;98354.72;5189523;28;20217;-61
2022/06/28 08:48:35;;;;;;;3.50;3.30;;;24.20;99.90;;;25.03;59.02;98350.13;5193181;28;20749;-61
2022/06/28 08:51:11;;;;;;;3.58;3.33;;;23.90;99.90;;;25.33;59.49;98359.13;5189284;28;20193;-62
2022/06/28 08:53:49;;;;;;;3.22;2.92;;;24.30;99.90;;;25.58;58.37;98354.88;5197380;28;20225;-62
2022/06/28 08:56:22;;;;;;;3.33;3.03;;;24.60;99.90;;;25.97;56.25;98348.97;5197240;28;20730;-60
2022/06/28 08:58:58;;;;;;;3.30;3.10;;;25.00;99.90;;;26.17;56.30;98340.31;5204629;28;20228;-62
2022/06/28 09:01:31;;;;;;;3.28;2.97;;;25.10;99.90;;;26.72;54.72;98343.03;5207116;28;20197;-62
2022/06/28 09:04:08;;;;;;;2.97;2.83;;;25.80;99.90;;;26.99;54.39;98329.06;5207006;28;20671;-61
2022/06/28 09:06:42;;;;;;;3.35;3.15;;;26.00;99.90;;;26.77;54.07;98322.94;5201517;28;20279;-61
2022/06/28 09:09:16;;;;;;;3.08;2.83;;;25.60;99.30;;;26.45;53.20;98320.28;5200496;28;20605;-62
2022/06/28 09:11:49;;;;;;;3.50;3.20;;;25.40;98.50;;;25.61;54.26;98329.59;5206066;28;20205;-61
2022/06/28 09:14:27;;;;;;;3.22;3.00;;;24.40;99.30;;;25.29;56.05;98328.53;5197268;28;20193;-62
2022/06/28 09:17:20;;;;;;;3.28;3.03;;;24.00;99.90;;;24.89;57.97;98325.63;5204787;28;20247;-62
2022/06/28 09:19:57;;;;;;;3.20;3.00;;;23.50;99.90;;;24.66;59.64;98334.16;5194112;28;20221;-62
2022/06/28 09:22:38;;;;;;;3.05;2.85;;;23.30;99.90;;;24.46;60.45;98327.88;5204869;28;20197;-62
2022/06/28 09:25:24;;;;;;;3.35;3.05;;;23.20;99.90;;;24.41;61.24;98326.91;5202192;28;20214;-62
2022/06/28 09:28:00;;;;;;;3.40;3.13;;;23.20;99.90;;;24.28;61.21;98328.53;5203549;28;20633;-62
2022/06/28 09:30:33;;;;;;;3.30;3.10;;;23.10;99.90;;;24.16;59.35;98329.28;5203370;28;20247;-61
2022/06/28 09:33:06;;;;;;;3.10;2.90;;;23.00;99.90;;;23.94;59.72;98329.91;5199468;28;20201;-61
2022/06/28 09:35:51;;;;;;;2.95;2.75;;;22.80;99.90;;;23.69;61.53;98328.69;5202227;28;20655;-59
2022/06/28 09:38:33;;;;;;;3.20;2.97;;;22.70;99.90;;;23.72;61.04;98345.34;5195514;28;20226;-61
2022/06/28 09:41:19;;;;;;;2.95;2.75;;;22.70;99.90;;;23.70;62.84;98347.03;5195743;28;20205;-62
2022/06/28 09:43:58;;;;;;;3.38;3.17;;;22.60;99.90;;;23.65;61.51;98346.06;5197202;28;20236;-62
2022/06/28 09:46:35;;;;;;;3.00;2.70;;;22.60;99.90;;;23.70;60.79;98353.97;5198348;28;20240;-60
2022/06/28 09:49:09;;;;;;;2.95;2.70;;;22.60;99.90;;;23.43;60.96;98349.25;5203159;28;20224;-60
2022/06/28 09:51:44;;;;;;;2.80;2.60;;;22.50;99.90;;;23.53;61.42;98338.09;5192148;28;20328;-61
2022/06/28 09:54:19;;;;;;;2.97;2.80;;;22.60;99.90;;;23.85;61.47;98332.44;5195226;28;20201;-61
2022/06/28 09:56:55;;;;;;;2.45;2.35;;;22.90;99.90;;;24.13;60.67;98326.66;5200585;28;20212;-61
2022/06/28 09:59:29;;;;;;;2.72;2.60;;;23.20;99.90;;;24.36;60.97;98320.78;5194975;28;20225;-61
2022/06/28 10:02:03;;;;;;;2.90;2.80;;;23.40;99.90;;;24.68;57.24;98321.97;5199695;28;20228;-61
2022/06/28 10:04:36;;;;;;;2.75;2.40;;;23.70;99.90;;;24.59;58.83;98321.03;5199816;28;20201;-61
2022/06/28 10:07:13;;;;;;;3.40;2.78;;;23.80;99.90;;;24.96;56.56;98332.66;5203172;28;20197;-61
2022/06/28 10:09:48;;;;;;;2.95;2.70;;;24.10;99.90;;;25.09;55.47;98326.63;5200488;28;20267;-59
2022/06/28 10:15:18;;;;;;;2.70;2.50;;;24.10;99.90;;;25.17;55.00;98327.59;5202324;28;20671;-62
2022/06/28 10:17:56;;;;;;;2.47;2.25;;;24.10;99.50;;;24.78;56.74;98317.72;5197844;28;20573;-61
2022/06/28 10:20:31;;;;;;;2.60;2.40;;;23.90;99.90;;;24.97;56.42;98313.47;5196466;28;20220;-61
2022/06/28 10:23:25;;;;;;;2.90;2.70;;;24.10;99.90;;;25.02;56.04;98317.00;5199080;28;20663;-61
2022/06/28 10:26:06;;;;;;;3.00;2.80;;;24.10;99.70;;;24.89;56.69;98309.94;5197341;28;20675;-61
2022/06/28 10:28:44;;;;;;;3.03;2.83;;;24.00;99.90;;;24.75;56.81;98298.50;5198995;28;20339;-61
2022/06/28 10:31:34;;;;;;;3.42;3.08;;;23.80;99.90;;;24.87;56.74;98289.00;5201327;28;20229;-60
2022/06/28 10:34:19;;;;;;;2.83;2.67;;;23.90;99.90;;;24.80;58.29;98273.25;5200293;28;20690;-59
2022/06/28 10:36:55;;;;;;;3.25;2.45;;;23.90;99.90;;;24.90;57.40;98275.94;5193365;28;20569;-61
2022/06/28 10:39:31;;;;;;;2.85;2.50;;;24.00;99.90;;;24.98;55.88;98270.78;5201556;28;20248;-61
2022/06/28 10:42:14;;;;;;;2.47;2.28;;;24.00;99.70;;;24.94;57.86;98276.84;5203699;28;20197;-61
2022/06/28 10:44:48;;;;;;;2.78;2.58;;;24.10;99.90;;;24.92;56.70;98268.09;5196191;28;20277;-62
2022/06/28 10:47:21;;;;;;;2.25;2.15;;;24.10;99.60;;;25.14;56.37;98267.41;5200646;28;20663;-62
2022/06/28 10:49:59;;;;;;;2.75;2.65;;;24.20;99.90;;;25.42;54.85;98264.06;5191789;28;20214;-61
2022/06/28 10:52:34;;;;;;;2.65;2.45;;;24.50;98.90;;;25.44;55.52;98255.34;5193490;28;20205;-61
2022/06/28 10:55:22;;;;;;;2.80;2.58;;;24.70;98.90;;;25.27;55.59;98259.63;5197966;28;20197;-62
2022/06/28 10:58:12;;;;;;;2.97;2.78;;;24.40;99.00;;;25.29;55.95;98250.91;5194211;28;20659;-62
2022/06/28 11:00:53;;;;;;;2.83;2.63;;;24.30;99.30;;;25.17;54.14;98246.47;5187115;28;20715;-62